Flight Track Log - Related Links

Times and Time Zones

All times are in EDT time to prevent confusion due to time zone crossing. See the N418KC flight status page for this flight to view local times or setup timezone preferences in your user account.

Time Position Orientation Groundspeed Altitude Reporting Facility
EDT Latitude Longitude Course Direction KTS MPH feet Rate Location/Type
Sun 09:03:17 AM 43.3819 -70.5739 50° Northeast 242 278 3,000  Level Boston Center
Sun 09:04:17 AM 43.4150 -70.4986 59° Northeast 235 270 3,000  Level Boston Center
Sun 09:05:18 AM 43.4458 -70.4244 60° Northeast 230 265 3,000  Level Boston Center
Sun 09:06:19 AM 43.4758 -70.3419 63° Northeast 227 261 3,000 50 Level Boston Center
Sun 09:07:00 AM 43.5878 -70.3758 50° Northeast  Level FlightAware Approximate
Sun 09:07:19 AM 43.5036 -70.2681 63° Northeast 223 257 3,100  Level Boston Center
Sun 09:08:00 AM 43.6211 -70.3205 50° Northeast  Level FlightAware Approximate
Sun 09:08:20 AM 43.5322 -70.1944 62° Northeast 221 254 3,200  Level Boston Center
Sun 09:09:21 AM 43.5589 -70.1175 64° Northeast 221 254 2,900 -492 Descending Boston Center
Sun 09:10:22 AM 43.6183 -70.0681 31° Northeast 253 291 2,200 -532 Descending Boston Center
Sun 09:11:25 AM 43.6414 -70.1206 301° West 181 208 1,800 -242 Descending Boston Center
Sun 09:12:26 AM 43.6361 -70.1792 263° West 164 189 1,700 -344 Descending Boston Center
Sun 09:13:27 AM 43.6400 -70.2389 275° West 160 184 1,100 -639 Descending Boston Center
Sun 09:14:28 AM 43.6436 -70.2936 275° West 135 155 400 590 Descending Boston Center
Sun 09:15:29 AM 43.6511 -70.3586 279° West 178 205 2,300 836 Climbing Boston Center
Sun 09:16:30 AM 43.6128 -70.3483 169° South 155 178 2,100 -148 Descending Boston Center
Sun 09:17:31 AM 43.5750 -70.3275 158° South 151 174 2,000 -48 Descending Boston Center
Sun 09:18:34 AM 43.5583 -70.2617 109° East 167 192 2,000  Level Boston Center
Sun 09:19:35 AM 43.5581 -70.1931 90° East 176 203 2,000  Level Boston Center
Sun 09:20:35 AM 43.5583 -70.1231 90° East 180 207 2,000  Level Boston Center
Sun 09:21:36 AM 43.6064 -70.0944 23° Northeast 196 226 2,000 -97 Level Boston Center
Sun 09:22:39 AM 43.6336 -70.1422 308° West 174 200 1,800 -242 Descending Boston Center
Sun 09:23:40 AM 43.6369 -70.1989 275° West 152 175 1,500 -393 Descending Boston Center
Sun 09:24:41 AM 43.6400 -70.2397 276° West 113 130 1,000 -545 Descending Boston Center
Sun 09:25:41 AM 43.6431 -70.2825 276° West 107 123 400 -347 Descending Boston Center
Sun 09:26:42 AM 43.6458 -70.3225 275° West 107 123 300 -98 Descending Boston Center

Login

Don't have an account? Register now (free) for customized features, flight alerts, and more!